sensor_id;sensor_type;location;lat;lon;timestamp;pressure;altitude;pressure_sealevel;temperature;humidity
56241;BME280;42155;53.096;23.226;2023-02-28T00:00:23;101425.47;;;-4.16;71.01
56241;BME280;42155;53.096;23.226;2023-02-28T00:02:24;101409.88;;;-4.26;71.27
56241;BME280;42155;53.096;23.226;2023-02-28T00:04:24;101428.91;;;-4.17;71.16
56241;BME280;42155;53.096;23.226;2023-02-28T00:06:25;101425.47;;;-4.19;71.03
56241;BME280;42155;53.096;23.226;2023-02-28T00:08:25;101426.31;;;-4.24;71.09
56241;BME280;42155;53.096;23.226;2023-02-28T00:10:30;101421.97;;;-4.27;71.17
56241;BME280;42155;53.096;23.226;2023-02-28T00:12:31;101430.63;;;-4.28;70.93
56241;BME280;42155;53.096;23.226;2023-02-28T00:14:31;101430.63;;;-4.29;71.01
56241;BME280;42155;53.096;23.226;2023-02-28T00:16:32;101431.47;;;-4.27;70.97
56241;BME280;42155;53.096;23.226;2023-02-28T00:18:33;101439.25;;;-4.29;71.25
56241;BME280;42155;53.096;23.226;2023-02-28T00:20:33;101441.81;;;-4.32;71.03
56241;BME280;42155;53.096;23.226;2023-02-28T00:22:34;101443.56;;;-4.32;71.01
56241;BME280;42155;53.096;23.226;2023-02-28T00:24:34;101444.38;;;-4.35;70.90
56241;BME280;42155;53.096;23.226;2023-02-28T00:26:34;101434.00;;;-4.44;70.54
56241;BME280;42155;53.096;23.226;2023-02-28T00:28:35;101414.91;;;-4.58;71.00
56241;BME280;42155;53.096;23.226;2023-02-28T00:30:35;101446.09;;;-4.43;70.99
56241;BME280;42155;53.096;23.226;2023-02-28T00:32:35;101433.13;;;-4.46;71.18
56241;BME280;42155;53.096;23.226;2023-02-28T00:34:36;101435.72;;;-4.46;71.31
56241;BME280;42155;53.096;23.226;2023-02-28T00:36:36;101444.34;;;-4.47;71.13
56241;BME280;42155;53.096;23.226;2023-02-28T00:38:37;101439.16;;;-4.50;71.15
56241;BME280;42155;53.096;23.226;2023-02-28T00:40:38;101440.03;;;-4.53;71.19
56241;BME280;42155;53.096;23.226;2023-02-28T00:42:38;101440.00;;;-4.54;71.27
56241;BME280;42155;53.096;23.226;2023-02-28T00:44:39;101433.09;;;-4.57;71.08
56241;BME280;42155;53.096;23.226;2023-02-28T00:46:39;101432.16;;;-4.64;71.04
56241;BME280;42155;53.096;23.226;2023-02-28T00:48:39;101432.16;;;-4.64;70.91
56241;BME280;42155;53.096;23.226;2023-02-28T00:50:40;101444.28;;;-4.59;71.06
56241;BME280;42155;53.096;23.226;2023-02-28T00:52:40;101456.38;;;-4.62;71.21
56241;BME280;42155;53.096;23.226;2023-02-28T00:54:40;101447.72;;;-4.67;70.85
56241;BME280;42155;53.096;23.226;2023-02-28T00:56:41;101405.22;;;-4.96;70.71
56241;BME280;42155;53.096;23.226;2023-02-28T00:58:41;101446.81;;;-4.69;70.90
56241;BME280;42155;53.096;23.226;2023-02-28T01:00:42;101421.69;;;-4.88;71.19
56241;BME280;42155;53.096;23.226;2023-02-28T01:02:42;101458.03;;;-4.73;71.07
56241;BME280;42155;53.096;23.226;2023-02-28T01:04:42;101458.88;;;-4.75;71.17
56241;BME280;42155;53.096;23.226;2023-02-28T01:06:43;101433.75;;;-4.87;70.89
56241;BME280;42155;53.096;23.226;2023-02-28T01:08:44;101425.94;;;-4.95;71.27
56241;BME280;42155;53.096;23.226;2023-02-28T01:10:44;101445.91;;;-4.80;71.45
56241;BME280;42155;53.096;23.226;2023-02-28T01:12:44;101438.06;;;-4.92;71.04
56241;BME280;42155;53.096;23.226;2023-02-28T01:14:45;101451.91;;;-4.81;71.15
56241;BME280;42155;53.096;23.226;2023-02-28T01:16:45;101447.56;;;-4.88;71.06
56241;BME280;42155;53.096;23.226;2023-02-28T01:18:46;101441.50;;;-4.90;70.57
56241;BME280;42155;53.096;23.226;2023-02-28T01:20:47;101445.84;;;-4.88;70.94
56241;BME280;42155;53.096;23.226;2023-02-28T01:22:47;101447.56;;;-4.88;70.85
56241;BME280;42155;53.096;23.226;2023-02-28T01:24:48;101451.03;;;-4.86;70.88
56241;BME280;42155;53.096;23.226;2023-02-28T01:26:48;101411.19;;;-5.11;70.87
56241;BME280;42155;53.096;23.226;2023-02-28T01:28:50;101444.97;;;-4.87;71.40
56241;BME280;42155;53.096;23.226;2023-02-28T01:30:51;101448.44;;;-4.88;70.94
56241;BME280;42155;53.096;23.226;2023-02-28T01:32:51;101355.72;;;-5.48;70.82
56241;BME280;42155;53.096;23.226;2023-02-28T01:34:51;101444.09;;;-4.90;70.77
56241;BME280;42155;53.096;23.226;2023-02-28T01:36:52;101448.41;;;-4.91;71.05
56241;BME280;42155;53.096;23.226;2023-02-28T01:38:53;101444.09;;;-4.93;70.92
56241;BME280;42155;53.096;23.226;2023-02-28T01:40:54;101436.28;;;-4.98;70.75
56241;BME280;42155;53.096;23.226;2023-02-28T01:42:54;101441.47;;;-4.96;70.79
56241;BME280;42155;53.096;23.226;2023-02-28T01:46:57;101441.47;;;-4.96;71.37
56241;BME280;42155;53.096;23.226;2023-02-28T01:49:16;101439.75;;;-4.96;70.97
56241;BME280;42155;53.096;23.226;2023-02-28T01:51:22;101436.28;;;-4.98;70.88
56241;BME280;42155;53.096;23.226;2023-02-28T01:53:32;101427.63;;;-5.03;71.26
56241;BME280;42155;53.096;23.226;2023-02-28T01:55:34;101366.09;;;-5.45;71.32
56241;BME280;42155;53.096;23.226;2023-02-28T01:57:46;101406.75;;;-5.26;70.87
56241;BME280;42155;53.096;23.226;2023-02-28T01:59:52;101428.44;;;-5.12;71.71
56241;BME280;42155;53.096;23.226;2023-02-28T02:01:54;101433.59;;;-5.08;71.20
56241;BME280;42155;53.096;23.226;2023-02-28T02:03:57;101427.59;;;-5.07;71.35
56241;BME280;42155;53.096;23.226;2023-02-28T02:05:58;101423.25;;;-5.12;71.02
56241;BME280;42155;53.096;23.226;2023-02-28T02:08:05;101380.75;;;-5.41;70.85
56241;BME280;42155;53.096;23.226;2023-02-28T02:10:13;101430.16;;;-5.10;71.12
56241;BME280;42155;53.096;23.226;2023-02-28T02:12:27;101417.16;;;-5.21;70.93
56241;BME280;42155;53.096;23.226;2023-02-28T02:14:59;101428.41;;;-5.16;70.95
56241;BME280;42155;53.096;23.226;2023-02-28T02:22:03;101431.81;;;-5.22;70.90
56241;BME280;42155;53.096;23.226;2023-02-28T02:36:33;101446.34;;;-5.38;70.90
56241;BME280;42155;53.096;23.226;2023-02-28T02:38:48;101449.78;;;-5.40;70.55
56241;BME280;42155;53.096;23.226;2023-02-28T02:43:11;101448.84;;;-5.48;71.01
56241;BME280;42155;53.096;23.226;2023-02-28T02:45:26;101413.31;;;-5.68;70.35
56241;BME280;42155;53.096;23.226;2023-02-28T02:47:30;101454.00;;;-5.48;70.70
56241;BME280;42155;53.096;23.226;2023-02-28T02:49:33;101448.84;;;-5.48;70.30
56241;BME280;42155;53.096;23.226;2023-02-28T02:51:34;101448.78;;;-5.51;70.89
56241;BME280;42155;53.096;23.226;2023-02-28T02:53:40;101450.50;;;-5.53;70.54
56241;BME280;42155;53.096;23.226;2023-02-28T02:55:44;101450.44;;;-5.63;70.94
56241;BME280;42155;53.096;23.226;2023-02-28T02:57:54;101461.69;;;-5.57;70.50
56241;BME280;42155;53.096;23.226;2023-02-28T02:59:58;101451.34;;;-5.59;70.95
56241;BME280;42155;53.096;23.226;2023-02-28T03:02:03;101456.50;;;-5.59;71.24
56241;BME280;42155;53.096;23.226;2023-02-28T03:04:08;101427.84;;;-5.79;71.13
56241;BME280;42155;53.096;23.226;2023-02-28T03:06:09;101455.56;;;-5.66;70.53
56241;BME280;42155;53.096;23.226;2023-02-28T03:08:09;101453.84;;;-5.67;70.93
56241;BME280;42155;53.096;23.226;2023-02-28T03:12:35;101455.53;;;-5.69;70.81
56241;BME280;42155;53.096;23.226;2023-02-28T03:20:07;101458.97;;;-5.73;70.64
56241;BME280;42155;53.096;23.226;2023-02-28T03:27:10;101469.19;;;-5.82;70.89
56241;BME280;42155;53.096;23.226;2023-02-28T03:31:22;101462.28;;;-5.83;70.76
56241;BME280;42155;53.096;23.226;2023-02-28T03:33:30;101468.28;;;-5.85;70.52
56241;BME280;42155;53.096;23.226;2023-02-28T03:35:35;101464.84;;;-5.86;70.59
56241;BME280;42155;53.096;23.226;2023-02-28T03:37:40;101451.88;;;-5.89;70.70
56241;BME280;42155;53.096;23.226;2023-02-28T03:39:46;101441.44;;;-6.03;70.86
56241;BME280;42155;53.096;23.226;2023-02-28T03:41:52;101467.38;;;-5.89;70.36
56241;BME280;42155;53.096;23.226;2023-02-28T03:44:06;101463.06;;;-5.90;70.44
56241;BME280;42155;53.096;23.226;2023-02-28T03:46:10;101463.06;;;-5.90;70.36
56241;BME280;42155;53.096;23.226;2023-02-28T03:48:27;101463.91;;;-5.94;70.67
56241;BME280;42155;53.096;23.226;2023-02-28T03:50:40;101470.78;;;-5.96;70.91
56241;BME280;42155;53.096;23.226;2023-02-28T03:52:47;101445.56;;;-6.16;70.70
56241;BME280;42155;53.096;23.226;2023-02-28T03:54:52;101484.59;;;-5.94;70.80
56241;BME280;42155;53.096;23.226;2023-02-28T03:57:08;101485.47;;;-5.95;70.61
56241;BME280;42155;53.096;23.226;2023-02-28T04:01:28;101493.16;;;-5.98;70.40
56241;BME280;42155;53.096;23.226;2023-02-28T04:03:30;101490.56;;;-6.00;70.50
56241;BME280;42155;53.096;23.226;2023-02-28T04:05:31;101497.47;;;-5.97;70.39
56241;BME280;42155;53.096;23.226;2023-02-28T04:07:32;101497.47;;;-5.97;70.14
56241;BME280;42155;53.096;23.226;2023-02-28T04:09:33;101485.41;;;-6.00;69.97
56241;BME280;42155;53.096;23.226;2023-02-28T04:11:42;101485.28;;;-6.09;70.53
56241;BME280;42155;53.096;23.226;2023-02-28T04:13:42;101486.22;;;-6.02;70.71
56241;BME280;42155;53.096;23.226;2023-02-28T04:15:43;101489.66;;;-6.03;70.48
56241;BME280;42155;53.096;23.226;2023-02-28T04:17:43;101492.25;;;-6.03;70.80
56241;BME280;42155;53.096;23.226;2023-02-28T04:19:43;101500.00;;;-6.03;70.40
56241;BME280;42155;53.096;23.226;2023-02-28T04:21:49;101441.03;;;-6.36;70.47
56241;BME280;42155;53.096;23.226;2023-02-28T04:23:50;101455.78;;;-6.28;70.48
56241;BME280;42155;53.096;23.226;2023-02-28T04:25:50;101502.53;;;-6.08;70.33
56241;BME280;42155;53.096;23.226;2023-02-28T04:27:50;101498.22;;;-6.09;70.35
56241;BME280;42155;53.096;23.226;2023-02-28T04:29:51;101495.59;;;-6.10;70.36
56241;BME280;42155;53.096;23.226;2023-02-28T04:31:52;101494.72;;;-6.12;70.83
56241;BME280;42155;53.096;23.226;2023-02-28T04:33:52;101505.09;;;-6.09;70.98
56241;BME280;42155;53.096;23.226;2023-02-28T04:36:00;101498.19;;;-6.10;70.29
56241;BME280;42155;53.096;23.226;2023-02-28T04:38:01;101484.28;;;-6.20;70.28
56241;BME280;42155;53.096;23.226;2023-02-28T04:40:02;101495.53;;;-6.15;70.91
56241;BME280;42155;53.096;23.226;2023-02-28T04:42:03;101486.06;;;-6.18;70.71
56241;BME280;42155;53.096;23.226;2023-02-28T04:44:04;101490.41;;;-6.12;70.72
56241;BME280;42155;53.096;23.226;2023-02-28T04:46:05;101482.66;;;-6.10;70.99
56241;BME280;42155;53.096;23.226;2023-02-28T04:48:06;101485.19;;;-6.15;70.50
56241;BME280;42155;53.096;23.226;2023-02-28T04:50:07;101495.59;;;-6.10;70.29
56241;BME280;42155;53.096;23.226;2023-02-28T04:52:07;101485.19;;;-6.15;70.56
56241;BME280;42155;53.096;23.226;2023-02-28T04:54:07;101497.28;;;-6.14;70.45
56241;BME280;42155;53.096;23.226;2023-02-28T04:56:11;101493.00;;;-6.13;70.82
56241;BME280;42155;53.096;23.226;2023-02-28T04:58:13;101490.38;;;-6.15;70.75
56241;BME280;42155;53.096;23.226;2023-02-28T05:00:14;101477.31;;;-6.26;70.33
56241;BME280;42155;53.096;23.226;2023-02-28T05:02:14;101477.31;;;-6.26;70.64
56241;BME280;42155;53.096;23.226;2023-02-28T05:04:15;101493.78;;;-6.18;70.69
56241;BME280;42155;53.096;23.226;2023-02-28T05:06:16;101492.91;;;-6.20;70.27
56241;BME280;42155;53.096;23.226;2023-02-28T05:08:16;101483.41;;;-6.21;70.57
56241;BME280;42155;53.096;23.226;2023-02-28T05:10:17;101428.75;;;-6.54;70.50
56241;BME280;42155;53.096;23.226;2023-02-28T05:12:17;101480.81;;;-6.24;70.42
56241;BME280;42155;53.096;23.226;2023-02-28T05:14:17;101474.00;;;-6.17;70.63
56241;BME280;42155;53.096;23.226;2023-02-28T05:16:18;101477.50;;;-6.13;70.59
56241;BME280;42155;53.096;23.226;2023-02-28T05:18:19;101474.03;;;-6.12;70.59
56241;BME280;42155;53.096;23.226;2023-02-28T05:20:19;101472.34;;;-6.10;70.35
56241;BME280;42155;53.096;23.226;2023-02-28T05:22:19;101473.28;;;-6.05;70.39
56241;BME280;42155;53.096;23.226;2023-02-28T05:24:20;101473.28;;;-6.04;70.33
56241;BME280;42155;53.096;23.226;2023-02-28T05:26:20;101469.81;;;-6.06;70.50
56241;BME280;42155;53.096;23.226;2023-02-28T05:28:20;101474.22;;;-5.99;70.67
56241;BME280;42155;53.096;23.226;2023-02-28T05:30:21;101465.66;;;-5.92;70.47
56241;BME280;42155;53.096;23.226;2023-02-28T05:32:22;101453.56;;;-5.96;70.20
56241;BME280;42155;53.096;23.226;2023-02-28T05:34:22;101458.81;;;-5.85;70.23
56241;BME280;42155;53.096;23.226;2023-02-28T05:36:23;101465.84;;;-5.72;70.26
56241;BME280;42155;53.096;23.226;2023-02-28T05:38:23;101474.56;;;-5.64;70.08
56241;BME280;42155;53.096;23.226;2023-02-28T05:40:23;101464.22;;;-5.60;70.34
56241;BME280;42155;53.096;23.226;2023-02-28T05:42:24;101476.34;;;-5.56;69.99
56241;BME280;42155;53.096;23.226;2023-02-28T05:44:24;101461.69;;;-5.57;69.91
56241;BME280;42155;53.096;23.226;2023-02-28T05:46:24;101476.38;;;-5.52;70.30
56241;BME280;42155;53.096;23.226;2023-02-28T05:48:25;101465.25;;;-5.45;70.41
56241;BME280;42155;53.096;23.226;2023-02-28T05:50:25;101445.47;;;-5.38;69.79
56241;BME280;42155;53.096;23.226;2023-02-28T05:52:26;101461.69;;;-4.31;68.76
56241;BME280;42155;53.096;23.226;2023-02-28T05:54:26;101449.72;;;-2.53;65.52
56241;BME280;42155;53.096;23.226;2023-02-28T05:56:27;101444.84;;;-0.52;61.66
56241;BME280;42155;53.096;23.226;2023-02-28T05:58:28;101403.41;;;1.05;57.93
56241;BME280;42155;53.096;23.226;2023-02-28T06:00:28;101432.72;;;2.83;55.43
56241;BME280;42155;53.096;23.226;2023-02-28T06:02:29;101426.38;;;4.18;52.98
56241;BME280;42155;53.096;23.226;2023-02-28T06:04:29;101425.63;;;5.45;51.34
56241;BME280;42155;53.096;23.226;2023-02-28T06:06:30;101427.19;;;6.67;49.91
56241;BME280;42155;53.096;23.226;2023-02-28T06:08:30;101409.22;;;7.77;47.78
56241;BME280;42155;53.096;23.226;2023-02-28T06:10:30;101425.91;;;8.89;46.30
56241;BME280;42155;53.096;23.226;2023-02-28T06:12:31;101419.72;;;9.74;45.28
56241;BME280;42155;53.096;23.226;2023-02-28T06:14:32;101433.00;;;10.54;43.66
56241;BME280;42155;53.096;23.226;2023-02-28T06:16:34;101430.88;;;11.21;42.18
56241;BME280;42155;53.096;23.226;2023-02-28T06:18:34;101429.13;;;11.64;41.32
56241;BME280;42155;53.096;23.226;2023-02-28T06:20:34;101404.75;;;11.28;42.20
56241;BME280;42155;53.096;23.226;2023-02-28T06:22:36;101414.81;;;9.99;44.12
56241;BME280;42155;53.096;23.226;2023-02-28T06:24:36;101453.81;;;8.41;48.00
56241;BME280;42155;53.096;23.226;2023-02-28T06:26:36;101444.13;;;7.03;50.83
56241;BME280;42155;53.096;23.226;2023-02-28T06:28:37;101453.19;;;6.08;52.11
56241;BME280;42155;53.096;23.226;2023-02-28T06:30:38;101461.41;;;5.26;53.98
56241;BME280;42155;53.096;23.226;2023-02-28T06:32:38;101425.88;;;4.33;54.93
56241;BME280;42155;53.096;23.226;2023-02-28T06:34:39;101461.88;;;4.01;56.20
56241;BME280;42155;53.096;23.226;2023-02-28T06:36:40;101474.31;;;3.64;56.23
56241;BME280;42155;53.096;23.226;2023-02-28T06:38:41;101475.41;;;3.24;57.10
56241;BME280;42155;53.096;23.226;2023-02-28T06:40:42;101426.97;;;2.67;57.13
56241;BME280;42155;53.096;23.226;2023-02-28T06:42:42;101472.34;;;2.71;57.89
56241;BME280;42155;53.096;23.226;2023-02-28T06:44:43;101475.28;;;2.57;58.58
56241;BME280;42155;53.096;23.226;2023-02-28T06:46:44;101436.91;;;2.16;58.37
56241;BME280;42155;53.096;23.226;2023-02-28T06:48:45;101444.03;;;2.11;58.61
56241;BME280;42155;53.096;23.226;2023-02-28T06:50:45;101450.34;;;2.00;58.79
56241;BME280;42155;53.096;23.226;2023-02-28T06:52:46;101479.03;;;2.07;59.33
56241;BME280;42155;53.096;23.226;2023-02-28T06:54:47;101476.41;;;2.07;59.29
56241;BME280;42155;53.096;23.226;2023-02-28T06:56:47;101474.63;;;2.07;59.20
56241;BME280;42155;53.096;23.226;2023-02-28T06:58:49;101478.97;;;2.10;59.06
56241;BME280;42155;53.096;23.226;2023-02-28T07:00:51;101489.38;;;2.13;59.10
56241;BME280;42155;53.096;23.226;2023-02-28T07:02:52;101477.25;;;2.09;58.86
56241;BME280;42155;53.096;23.226;2023-02-28T07:04:53;101480.88;;;2.01;59.37
56241;BME280;42155;53.096;23.226;2023-02-28T07:06:54;101436.16;;;1.69;59.29
56241;BME280;42155;53.096;23.226;2023-02-28T07:08:55;101471.44;;;1.94;58.85
56241;BME280;42155;53.096;23.226;2023-02-28T07:10:55;101476.50;;;2.02;59.38
56241;BME280;42155;53.096;23.226;2023-02-28T07:12:56;101473.78;;;2.08;59.10
56241;BME280;42155;53.096;23.226;2023-02-28T07:14:56;101477.09;;;2.15;58.88
56241;BME280;42155;53.096;23.226;2023-02-28T07:16:56;101473.44;;;2.23;58.79
56241;BME280;42155;53.096;23.226;2023-02-28T07:18:57;101484.53;;;2.35;58.49
56241;BME280;42155;53.096;23.226;2023-02-28T07:20:57;101464.78;;;2.20;58.22
56241;BME280;42155;53.096;23.226;2023-02-28T07:22:58;101455.50;;;2.05;58.64
56241;BME280;42155;53.096;23.226;2023-02-28T07:24:58;101492.38;;;2.36;58.57
56241;BME280;42155;53.096;23.226;2023-02-28T07:26:58;101489.56;;;2.44;58.62
56241;BME280;42155;53.096;23.226;2023-02-28T07:28:59;101489.47;;;2.48;57.96
56241;BME280;42155;53.096;23.226;2023-02-28T07:31:06;101489.41;;;2.51;58.41
56241;BME280;42155;53.096;23.226;2023-02-28T07:33:07;101495.50;;;2.52;58.51
56241;BME280;42155;53.096;23.226;2023-02-28T07:35:08;101485.72;;;2.59;58.37
56241;BME280;42155;53.096;23.226;2023-02-28T07:37:08;101482.81;;;2.71;57.78
56241;BME280;42155;53.096;23.226;2023-02-28T07:39:09;101471.41;;;2.73;57.89
56241;BME280;42155;53.096;23.226;2023-02-28T07:41:09;101490.47;;;2.80;57.88
56241;BME280;42155;53.096;23.226;2023-02-28T07:43:10;101483.56;;;2.77;58.23
56241;BME280;42155;53.096;23.226;2023-02-28T07:45:11;101483.44;;;2.82;58.04
56241;BME280;42155;53.096;23.226;2023-02-28T07:47:12;101412.50;;;2.52;57.64
56241;BME280;42155;53.096;23.226;2023-02-28T07:49:12;101483.88;;;2.99;57.75
56241;BME280;42155;53.096;23.226;2023-02-28T07:51:12;101440.03;;;2.70;57.14
56241;BME280;42155;53.096;23.226;2023-02-28T07:53:13;101479.44;;;3.03;57.79
56241;BME280;42155;53.096;23.226;2023-02-28T07:55:13;101475.75;;;3.10;57.70
56241;BME280;42155;53.096;23.226;2023-02-28T07:57:13;101460.88;;;3.11;57.54
56241;BME280;42155;53.096;23.226;2023-02-28T07:59:14;101455.47;;;3.17;57.24
56241;BME280;42155;53.096;23.226;2023-02-28T08:01:14;101457.53;;;3.38;57.24
56241;BME280;42155;53.096;23.226;2023-02-28T08:03:15;101460.03;;;3.43;56.87
56241;BME280;42155;53.096;23.226;2023-02-28T08:05:16;101460.72;;;3.49;56.70
56241;BME280;42155;53.096;23.226;2023-02-28T08:07:17;101472.06;;;3.50;56.04
56241;BME280;42155;53.096;23.226;2023-02-28T08:09:18;101463.16;;;3.55;56.47
56241;BME280;42155;53.096;23.226;2023-02-28T08:11:18;101468.16;;;3.65;56.35
56241;BME280;42155;53.096;23.226;2023-02-28T08:13:19;101444.53;;;3.65;55.99
56241;BME280;42155;53.096;23.226;2023-02-28T08:15:19;101466.13;;;3.76;55.63
56241;BME280;42155;53.096;23.226;2023-02-28T08:17:19;101447.16;;;3.65;55.57
56241;BME280;42155;53.096;23.226;2023-02-28T08:19:20;101460.94;;;3.73;54.84
56241;BME280;42155;53.096;23.226;2023-02-28T08:21:20;101463.81;;;3.65;55.65
56241;BME280;42155;53.096;23.226;2023-02-28T08:23:21;101459.19;;;3.73;55.53
56241;BME280;42155;53.096;23.226;2023-02-28T08:25:21;101453.94;;;3.73;55.23
56241;BME280;42155;53.096;23.226;2023-02-28T08:27:22;101460.94;;;3.73;55.17
56241;BME280;42155;53.096;23.226;2023-02-28T08:29:22;101462.59;;;3.77;55.77
56241;BME280;42155;53.096;23.226;2023-02-28T08:31:22;101460.75;;;3.79;55.39
56241;BME280;42155;53.096;23.226;2023-02-28T08:33:24;101456.78;;;3.66;54.85
56241;BME280;42155;53.096;23.226;2023-02-28T08:35:24;101440.19;;;3.65;54.96
56241;BME280;42155;53.096;23.226;2023-02-28T08:37:25;101461.97;;;3.67;55.19
56241;BME280;42155;53.096;23.226;2023-02-28T08:39:25;101455.94;;;3.64;55.47
56241;BME280;42155;53.096;23.226;2023-02-28T08:41:26;101452.00;;;3.80;54.86
56241;BME280;42155;53.096;23.226;2023-02-28T08:43:27;101453.25;;;3.96;54.62
56241;BME280;42155;53.096;23.226;2023-02-28T08:45:27;101440.91;;;4.00;54.32
56241;BME280;42155;53.096;23.226;2023-02-28T08:47:28;101431.44;;;3.94;54.21
56241;BME280;42155;53.096;23.226;2023-02-28T08:49:28;101398.50;;;3.84;54.96
56241;BME280;42155;53.096;23.226;2023-02-28T08:51:29;101428.41;;;4.08;54.20
56241;BME280;42155;53.096;23.226;2023-02-28T08:53:29;101431.97;;;4.05;54.77
56241;BME280;42155;53.096;23.226;2023-02-28T08:55:30;101405.25;;;3.91;54.41
56241;BME280;42155;53.096;23.226;2023-02-28T08:57:30;101431.94;;;4.07;54.42
56241;BME280;42155;53.096;23.226;2023-02-28T08:59:31;101390.78;;;3.78;54.16
56241;BME280;42155;53.096;23.226;2023-02-28T09:01:32;101430.72;;;3.89;54.94
56241;BME280;42155;53.096;23.226;2023-02-28T09:03:32;101432.63;;;3.84;54.64
56241;BME280;42155;53.096;23.226;2023-02-28T09:05:32;101420.75;;;3.71;54.54
56241;BME280;42155;53.096;23.226;2023-02-28T09:07:33;101420.97;;;3.63;54.98
56241;BME280;42155;53.096;23.226;2023-02-28T09:09:33;101408.03;;;3.57;54.63
56241;BME280;42155;53.096;23.226;2023-02-28T09:11:34;101436.31;;;3.77;54.85
56241;BME280;42155;53.096;23.226;2023-02-28T09:13:35;101438.16;;;3.75;55.07
56241;BME280;42155;53.096;23.226;2023-02-28T09:15:37;101423.66;;;3.62;55.50
56241;BME280;42155;53.096;23.226;2023-02-28T09:17:37;101333.09;;;3.16;55.01
56241;BME280;42155;53.096;23.226;2023-02-28T09:19:38;101418.53;;;3.55;55.01
56241;BME280;42155;53.096;23.226;2023-02-28T09:21:38;101427.34;;;3.54;55.17
56241;BME280;42155;53.096;23.226;2023-02-28T09:23:39;101437.69;;;3.59;55.31
56241;BME280;42155;53.096;23.226;2023-02-28T09:25:52;101438.41;;;3.66;56.04
56241;BME280;42155;53.096;23.226;2023-02-28T09:27:53;101432.44;;;3.61;55.60
56241;BME280;42155;53.096;23.226;2023-02-28T09:29:53;101437.25;;;3.74;55.71
56241;BME280;42155;53.096;23.226;2023-02-28T09:31:53;101447.00;;;3.71;55.20
56241;BME280;42155;53.096;23.226;2023-02-28T09:33:56;101412.41;;;3.56;55.25
56241;BME280;42155;53.096;23.226;2023-02-28T09:36:00;101436.06;;;3.86;54.50
56241;BME280;42155;53.096;23.226;2023-02-28T09:38:01;101393.50;;;3.75;54.57
56241;BME280;42155;53.096;23.226;2023-02-28T09:40:01;101388.78;;;3.86;54.25
56241;BME280;42155;53.096;23.226;2023-02-28T09:42:03;101445.28;;;4.29;53.73
56241;BME280;42155;53.096;23.226;2023-02-28T09:44:05;101436.59;;;4.27;54.17
56241;BME280;42155;53.096;23.226;2023-02-28T09:48:35;101439.50;;;4.46;54.34
56241;BME280;42155;53.096;23.226;2023-02-28T09:50:42;101432.84;;;4.34;53.32
56241;BME280;42155;53.096;23.226;2023-02-28T09:52:46;101428.91;;;3.91;54.57
56241;BME280;42155;53.096;23.226;2023-02-28T09:54:48;101402.78;;;3.55;55.03
56241;BME280;42155;53.096;23.226;2023-02-28T09:59:32;101432.25;;;3.96;54.92
56241;BME280;42155;53.096;23.226;2023-02-28T10:01:58;101417.22;;;4.01;54.81
56241;BME280;42155;53.096;23.226;2023-02-28T10:06:45;101388.16;;;3.78;54.68
56241;BME280;42155;53.096;23.226;2023-02-28T10:08:56;101428.22;;;4.14;54.89
56241;BME280;42155;53.096;23.226;2023-02-28T10:11:01;101432.34;;;4.23;54.67
56241;BME280;42155;53.096;23.226;2023-02-28T10:13:05;101426.78;;;4.32;53.95
56241;BME280;42155;53.096;23.226;2023-02-28T10:15:16;101432.47;;;4.46;53.74
56241;BME280;42155;53.096;23.226;2023-02-28T10:17:21;101378.31;;;4.14;54.16
56241;BME280;42155;53.096;23.226;2023-02-28T10:19:42;101426.28;;;4.49;54.42
56241;BME280;42155;53.096;23.226;2023-02-28T10:22:03;101416.22;;;4.62;53.89
56241;BME280;42155;53.096;23.226;2023-02-28T10:26:18;101414.09;;;4.73;53.32
56241;BME280;42155;53.096;23.226;2023-02-28T10:28:18;101412.19;;;4.78;53.20
56241;BME280;42155;53.096;23.226;2023-02-28T10:30:18;101405.38;;;4.71;53.10
56241;BME280;42155;53.096;23.226;2023-02-28T10:32:21;101408.63;;;4.79;53.58
56241;BME280;42155;53.096;23.226;2023-02-28T10:34:24;101399.13;;;4.75;53.18
56241;BME280;42155;53.096;23.226;2023-02-28T10:36:24;101398.56;;;4.65;53.10
56241;BME280;42155;53.096;23.226;2023-02-28T10:38:28;101398.81;;;4.57;53.30
56241;BME280;42155;53.096;23.226;2023-02-28T10:40:33;101396.16;;;4.59;53.94
56241;BME280;42155;53.096;23.226;2023-02-28T10:42:34;101376.63;;;4.66;53.70
56241;BME280;42155;53.096;23.226;2023-02-28T10:44:34;101383.63;;;4.67;53.16
56241;BME280;42155;53.096;23.226;2023-02-28T10:46:34;101374.66;;;4.73;53.33
56241;BME280;42155;53.096;23.226;2023-02-28T10:48:47;101381.69;;;4.72;52.47
56241;BME280;42155;53.096;23.226;2023-02-28T10:52:50;101327.63;;;4.37;53.00
56241;BME280;42155;53.096;23.226;2023-02-28T10:55:23;101373.50;;;4.55;52.80
56241;BME280;42155;53.096;23.226;2023-02-28T10:57:24;101352.53;;;4.53;52.67
56241;BME280;42155;53.096;23.226;2023-02-28T10:59:29;101375.72;;;4.41;53.38
56241;BME280;42155;53.096;23.226;2023-02-28T11:03:33;101377.22;;;3.93;53.60
56241;BME280;42155;53.096;23.226;2023-02-28T11:05:36;101371.47;;;3.79;53.63
56241;BME280;42155;53.096;23.226;2023-02-28T11:07:37;101368.25;;;3.71;53.58
56241;BME280;42155;53.096;23.226;2023-02-28T11:09:39;101366.69;;;3.64;54.37
56241;BME280;42155;53.096;23.226;2023-02-28T11:11:45;101370.16;;;3.66;53.97
56241;BME280;42155;53.096;23.226;2023-02-28T11:13:47;101324.09;;;3.54;53.92
56241;BME280;42155;53.096;23.226;2023-02-28T11:15:53;101362.16;;;3.98;54.06
56241;BME280;42155;53.096;23.226;2023-02-28T11:20:26;101365.31;;;4.09;53.91
56241;BME280;42155;53.096;23.226;2023-02-28T11:22:29;101360.06;;;4.09;53.85
56241;BME280;42155;53.096;23.226;2023-02-28T11:24:35;101361.38;;;4.23;52.97
56241;BME280;42155;53.096;23.226;2023-02-28T11:26:43;101369.91;;;4.31;52.91
56241;BME280;42155;53.096;23.226;2023-02-28T11:28:44;101355.28;;;4.22;53.08
56241;BME280;42155;53.096;23.226;2023-02-28T11:30:44;101357.69;;;4.30;52.68